sensor_id;sensor_type;location;lat;lon;timestamp;pressure;altitude;pressure_sealevel;temperature;humidity
41866;BME280;27539;43.222;27.558;2022-08-25T00:01:49;100040.84;;;22.34;100.00
41866;BME280;27539;43.222;27.558;2022-08-25T00:04:15;100008.22;;;22.19;100.00
41866;BME280;27539;43.222;27.558;2022-08-25T00:06:42;100035.16;;;22.43;100.00
41866;BME280;27539;43.222;27.558;2022-08-25T00:09:09;99985.44;;;22.07;100.00
41866;BME280;27539;43.222;27.558;2022-08-25T00:11:37;99993.75;;;22.04;100.00
41866;BME280;27539;43.222;27.558;2022-08-25T00:14:07;99988.78;;;22.00;100.00
41866;BME280;27539;43.222;27.558;2022-08-25T00:16:33;100022.91;;;22.13;100.00
41866;BME280;27539;43.222;27.558;2022-08-25T00:19:03;99977.81;;;21.90;100.00
41866;BME280;27539;43.222;27.558;2022-08-25T00:21:29;99985.13;;;21.91;100.00
41866;BME280;27539;43.222;27.558;2022-08-25T00:23:56;99986.03;;;21.74;100.00
41866;BME280;27539;43.222;27.558;2022-08-25T00:26:23;100001.00;;;21.75;100.00
41866;BME280;27539;43.222;27.558;2022-08-25T00:28:48;99997.31;;;21.83;100.00
41866;BME280;27539;43.222;27.558;2022-08-25T00:31:17;99964.25;;;21.57;100.00
41866;BME280;27539;43.222;27.558;2022-08-25T00:33:44;99988.53;;;21.67;100.00
41866;BME280;27539;43.222;27.558;2022-08-25T00:36:09;99992.38;;;21.54;100.00
41866;BME280;27539;43.222;27.558;2022-08-25T00:38:38;99979.06;;;21.46;100.00
41866;BME280;27539;43.222;27.558;2022-08-25T00:41:04;99941.28;;;21.24;100.00
41866;BME280;27539;43.222;27.558;2022-08-25T00:43:55;99961.44;;;21.40;100.00
41866;BME280;27539;43.222;27.558;2022-08-25T00:46:30;99923.81;;;21.22;100.00
41866;BME280;27539;43.222;27.558;2022-08-25T00:49:09;99942.94;;;21.17;100.00
41866;BME280;27539;43.222;27.558;2022-08-25T00:51:42;99908.84;;;20.96;100.00
41866;BME280;27539;43.222;27.558;2022-08-25T00:54:13;99955.09;;;21.17;100.00
41866;BME280;27539;43.222;27.558;2022-08-25T00:56:41;99954.59;;;21.06;100.00
41866;BME280;27539;43.222;27.558;2022-08-25T00:59:07;99944.97;;;21.07;100.00
41866;BME280;27539;43.222;27.558;2022-08-25T01:01:33;99944.13;;;21.07;100.00
41866;BME280;27539;43.222;27.558;2022-08-25T01:03:58;99934.81;;;20.98;100.00
41866;BME280;27539;43.222;27.558;2022-08-25T01:06:24;99925.84;;;21.04;100.00
41866;BME280;27539;43.222;27.558;2022-08-25T01:08:51;99933.16;;;20.97;100.00
41866;BME280;27539;43.222;27.558;2022-08-25T01:11:19;99943.25;;;20.89;100.00
41866;BME280;27539;43.222;27.558;2022-08-25T01:13:50;99940.94;;;20.91;100.00
41866;BME280;27539;43.222;27.558;2022-08-25T01:16:17;99932.13;;;20.84;100.00
41866;BME280;27539;43.222;27.558;2022-08-25T01:18:50;99944.47;;;20.97;100.00
41866;BME280;27539;43.222;27.558;2022-08-25T01:21:18;99950.94;;;20.97;100.00
41866;BME280;27539;43.222;27.558;2022-08-25T01:23:45;99937.63;;;20.98;100.00
41866;BME280;27539;43.222;27.558;2022-08-25T01:26:15;99933.78;;;21.11;100.00
41866;BME280;27539;43.222;27.558;2022-08-25T01:28:43;99923.81;;;21.05;100.00
41866;BME280;27539;43.222;27.558;2022-08-25T01:31:29;99926.63;;;20.96;100.00
41866;BME280;27539;43.222;27.558;2022-08-25T01:33:56;99922.81;;;21.01;100.00
41866;BME280;27539;43.222;27.558;2022-08-25T01:36:22;99893.72;;;20.83;100.00
41866;BME280;27539;43.222;27.558;2022-08-25T01:38:48;99911.69;;;21.04;100.00
41866;BME280;27539;43.222;27.558;2022-08-25T01:41:18;99885.75;;;20.85;100.00
41866;BME280;27539;43.222;27.558;2022-08-25T01:43:46;99889.22;;;20.90;100.00
41866;BME280;27539;43.222;27.558;2022-08-25T01:46:11;99880.44;;;20.92;100.00
41866;BME280;27539;43.222;27.558;2022-08-25T01:48:37;99911.03;;;21.07;100.00
41866;BME280;27539;43.222;27.558;2022-08-25T01:51:03;99902.69;;;21.20;100.00
41866;BME280;27539;43.222;27.558;2022-08-25T01:53:30;99860.78;;;21.04;100.00
41866;BME280;27539;43.222;27.558;2022-08-25T01:55:56;99881.03;;;21.24;100.00
41866;BME280;27539;43.222;27.558;2022-08-25T01:58:39;99877.53;;;21.35;100.00
41866;BME280;27539;43.222;27.558;2022-08-25T02:01:08;99877.53;;;21.35;100.00
41866;BME280;27539;43.222;27.558;2022-08-25T02:03:40;99886.69;;;21.41;100.00
41866;BME280;27539;43.222;27.558;2022-08-25T02:06:06;99886.88;;;21.27;100.00
41866;BME280;27539;43.222;27.558;2022-08-25T02:08:32;99892.16;;;21.29;100.00
41866;BME280;27539;43.222;27.558;2022-08-25T02:10:57;99857.44;;;21.20;100.00
41866;BME280;27539;43.222;27.558;2022-08-25T02:13:23;99875.03;;;21.34;100.00
41866;BME280;27539;43.222;27.558;2022-08-25T02:15:51;99848.59;;;21.30;100.00
41866;BME280;27539;43.222;27.558;2022-08-25T02:18:18;99870.53;;;21.42;100.00
41866;BME280;27539;43.222;27.558;2022-08-25T02:20:44;99871.38;;;21.42;100.00
41866;BME280;27539;43.222;27.558;2022-08-25T02:23:10;99871.53;;;21.54;100.00
41866;BME280;27539;43.222;27.558;2022-08-25T02:25:37;99875.53;;;21.45;100.00
41866;BME280;27539;43.222;27.558;2022-08-25T02:28:03;99842.75;;;21.26;100.00
41866;BME280;27539;43.222;27.558;2022-08-25T02:30:29;99871.22;;;21.39;100.00
41866;BME280;27539;43.222;27.558;2022-08-25T02:32:55;99874.38;;;21.37;100.00
41866;BME280;27539;43.222;27.558;2022-08-25T02:35:21;99862.88;;;21.33;100.00
41866;BME280;27539;43.222;27.558;2022-08-25T02:37:49;99826.97;;;21.17;100.00
41866;BME280;27539;43.222;27.558;2022-08-25T02:40:15;99863.22;;;21.32;100.00
41866;BME280;27539;43.222;27.558;2022-08-25T02:42:41;99859.38;;;21.36;100.00
41866;BME280;27539;43.222;27.558;2022-08-25T02:45:07;99868.88;;;21.41;100.00
41866;BME280;27539;43.222;27.558;2022-08-25T02:47:33;99868.03;;;21.49;100.00
41866;BME280;27539;43.222;27.558;2022-08-25T02:49:58;99874.34;;;21.54;100.00
41866;BME280;27539;43.222;27.558;2022-08-25T02:52:24;99885.69;;;21.54;100.00
41866;BME280;27539;43.222;27.558;2022-08-25T02:54:49;99839.94;;;21.26;100.00
41866;BME280;27539;43.222;27.558;2022-08-25T02:57:15;99872.34;;;21.55;100.00
41866;BME280;27539;43.222;27.558;2022-08-25T02:59:40;99862.34;;;21.57;100.00
41866;BME280;27539;43.222;27.558;2022-08-25T03:02:06;99866.34;;;21.56;100.00
41866;BME280;27539;43.222;27.558;2022-08-25T03:04:31;99841.72;;;21.48;100.00
41866;BME280;27539;43.222;27.558;2022-08-25T03:06:57;99880.28;;;21.70;100.00
41866;BME280;27539;43.222;27.558;2022-08-25T03:09:23;99847.06;;;21.50;100.00
41866;BME280;27539;43.222;27.558;2022-08-25T03:11:50;99883.00;;;21.58;100.00
41866;BME280;27539;43.222;27.558;2022-08-25T03:14:15;99883.03;;;21.49;100.00
41866;BME280;27539;43.222;27.558;2022-08-25T03:16:40;99890.84;;;21.52;100.00
41866;BME280;27539;43.222;27.558;2022-08-25T03:19:08;99899.81;;;21.54;100.00
41866;BME280;27539;43.222;27.558;2022-08-25T03:21:33;99898.66;;;21.55;100.00
41866;BME280;27539;43.222;27.558;2022-08-25T03:23:59;99901.28;;;21.61;100.00
41866;BME280;27539;43.222;27.558;2022-08-25T03:26:24;99902.13;;;21.61;100.00
41866;BME280;27539;43.222;27.558;2022-08-25T03:29:08;99903.44;;;21.64;100.00
41866;BME280;27539;43.222;27.558;2022-08-25T03:31:34;99905.13;;;21.65;100.00
41866;BME280;27539;43.222;27.558;2022-08-25T03:34:00;99907.09;;;21.64;100.00
41866;BME280;27539;43.222;27.558;2022-08-25T03:36:26;99905.13;;;21.65;100.00
41866;BME280;27539;43.222;27.558;2022-08-25T03:38:52;99901.78;;;21.63;100.00
41866;BME280;27539;43.222;27.558;2022-08-25T03:41:19;99907.44;;;21.63;100.00
41866;BME280;27539;43.222;27.558;2022-08-25T03:43:45;99911.25;;;21.67;100.00
41866;BME280;27539;43.222;27.558;2022-08-25T03:46:27;99912.94;;;21.59;100.00
41866;BME280;27539;43.222;27.558;2022-08-25T03:48:53;99911.25;;;21.67;100.00
41866;BME280;27539;43.222;27.558;2022-08-25T03:51:19;99911.63;;;21.56;100.00
41866;BME280;27539;43.222;27.558;2022-08-25T03:53:45;99906.13;;;21.60;100.00
41866;BME280;27539;43.222;27.558;2022-08-25T03:56:10;99903.63;;;21.58;100.00
41866;BME280;27539;43.222;27.558;2022-08-25T03:58:36;99904.81;;;21.57;100.00
41866;BME280;27539;43.222;27.558;2022-08-25T04:01:01;99901.78;;;21.63;100.00
41866;BME280;27539;43.222;27.558;2022-08-25T04:03:27;99910.78;;;21.65;100.00
41866;BME280;27539;43.222;27.558;2022-08-25T04:05:52;99912.63;;;21.61;100.00
41866;BME280;27539;43.222;27.558;2022-08-25T04:08:17;99909.78;;;21.61;100.00
41866;BME280;27539;43.222;27.558;2022-08-25T04:10:43;99913.28;;;21.57;100.00
41866;BME280;27539;43.222;27.558;2022-08-25T04:13:08;99911.44;;;21.62;100.00
41866;BME280;27539;43.222;27.558;2022-08-25T04:15:34;99922.66;;;21.49;100.00
41866;BME280;27539;43.222;27.558;2022-08-25T04:18:00;99919.94;;;21.62;100.00
41866;BME280;27539;43.222;27.558;2022-08-25T04:20:25;99910.97;;;21.60;100.00
41866;BME280;27539;43.222;27.558;2022-08-25T04:22:50;99912.56;;;21.78;100.00
41866;BME280;27539;43.222;27.558;2022-08-25T04:25:16;99913.38;;;21.87;100.00
41866;BME280;27539;43.222;27.558;2022-08-25T04:27:41;99910.66;;;21.99;100.00
41866;BME280;27539;43.222;27.558;2022-08-25T04:30:06;99916.13;;;22.05;100.00
41866;BME280;27539;43.222;27.558;2022-08-25T04:32:34;99909.22;;;22.14;100.00
41866;BME280;27539;43.222;27.558;2022-08-25T04:35:00;99910.06;;;22.24;100.00
41866;BME280;27539;43.222;27.558;2022-08-25T04:37:25;99918.56;;;22.24;100.00
41866;BME280;27539;43.222;27.558;2022-08-25T04:39:50;99925.72;;;22.21;100.00
41866;BME280;27539;43.222;27.558;2022-08-25T04:42:15;99927.22;;;22.18;100.00
41866;BME280;27539;43.222;27.558;2022-08-25T04:44:41;99923.41;;;22.23;100.00
41866;BME280;27539;43.222;27.558;2022-08-25T04:47:06;99929.06;;;22.23;100.00
41866;BME280;27539;43.222;27.558;2022-08-25T04:49:31;99938.06;;;22.25;100.00
41866;BME280;27539;43.222;27.558;2022-08-25T04:51:57;99926.03;;;22.28;100.00
41866;BME280;27539;43.222;27.558;2022-08-25T04:54:23;99924.66;;;22.34;100.00
41866;BME280;27539;43.222;27.558;2022-08-25T04:56:49;99928.78;;;22.46;100.00
41866;BME280;27539;43.222;27.558;2022-08-25T04:59:16;99927.75;;;22.50;100.00
41866;BME280;27539;43.222;27.558;2022-08-25T05:01:42;99926.72;;;22.55;100.00
41866;BME280;27539;43.222;27.558;2022-08-25T05:04:10;99917.53;;;22.79;100.00
41866;BME280;27539;43.222;27.558;2022-08-25T05:06:36;99926.41;;;22.98;100.00
41866;BME280;27539;43.222;27.558;2022-08-25T05:09:02;99907.91;;;22.92;100.00
41866;BME280;27539;43.222;27.558;2022-08-25T05:11:28;99912.41;;;22.93;100.00
41866;BME280;27539;43.222;27.558;2022-08-25T05:13:54;99921.94;;;22.97;100.00
41866;BME280;27539;43.222;27.558;2022-08-25T05:16:20;99916.50;;;23.04;100.00
41866;BME280;27539;43.222;27.558;2022-08-25T05:18:46;99906.81;;;23.26;100.00
41866;BME280;27539;43.222;27.558;2022-08-25T05:21:13;99905.31;;;23.41;100.00
41866;BME280;27539;43.222;27.558;2022-08-25T05:23:39;99906.19;;;23.54;100.00
41866;BME280;27539;43.222;27.558;2022-08-25T05:26:12;99896.50;;;23.67;100.00
41866;BME280;27539;43.222;27.558;2022-08-25T05:28:38;99889.81;;;23.84;100.00
41866;BME280;27539;43.222;27.558;2022-08-25T05:31:05;99891.16;;;23.99;100.00
41866;BME280;27539;43.222;27.558;2022-08-25T05:33:32;99893.88;;;24.08;100.00
41866;BME280;27539;43.222;27.558;2022-08-25T05:35:58;99892.81;;;24.00;100.00
41866;BME280;27539;43.222;27.558;2022-08-25T05:38:23;99899.78;;;23.90;100.00
41866;BME280;27539;43.222;27.558;2022-08-25T05:40:53;99895.97;;;23.74;100.00
41866;BME280;27539;43.222;27.558;2022-08-25T05:43:20;99892.31;;;23.74;100.00
41866;BME280;27539;43.222;27.558;2022-08-25T05:45:46;99891.78;;;23.71;100.00
41866;BME280;27539;43.222;27.558;2022-08-25T05:48:11;99895.56;;;23.63;100.00
41866;BME280;27539;43.222;27.558;2022-08-25T05:50:36;99896.09;;;23.78;100.00
41866;BME280;27539;43.222;27.558;2022-08-25T05:53:01;99893.50;;;23.85;100.00
41866;BME280;27539;43.222;27.558;2022-08-25T05:55:27;99892.31;;;23.86;100.00
41866;BME280;27539;43.222;27.558;2022-08-25T05:57:52;99899.91;;;23.94;100.00
41866;BME280;27539;43.222;27.558;2022-08-25T06:00:18;99900.72;;;23.94;100.00
41866;BME280;27539;43.222;27.558;2022-08-25T06:02:43;99898.94;;;24.02;100.00
41866;BME280;27539;43.222;27.558;2022-08-25T06:05:14;99895.28;;;24.14;100.00
41866;BME280;27539;43.222;27.558;2022-08-25T06:07:41;99896.00;;;24.35;100.00
41866;BME280;27539;43.222;27.558;2022-08-25T06:10:07;99894.34;;;24.59;100.00
41866;BME280;27539;43.222;27.558;2022-08-25T06:12:35;99890.28;;;24.72;100.00
41866;BME280;27539;43.222;27.558;2022-08-25T06:15:01;99893.00;;;24.81;100.00
41866;BME280;27539;43.222;27.558;2022-08-25T06:17:27;99895.13;;;24.84;100.00
41866;BME280;27539;43.222;27.558;2022-08-25T06:19:52;99896.19;;;24.79;100.00
41866;BME280;27539;43.222;27.558;2022-08-25T06:22:19;99898.69;;;24.81;100.00
41866;BME280;27539;43.222;27.558;2022-08-25T06:24:45;99893.72;;;24.78;100.00
41866;BME280;27539;43.222;27.558;2022-08-25T06:27:10;99894.25;;;24.96;100.00
41866;BME280;27539;43.222;27.558;2022-08-25T06:29:36;99898.34;;;25.23;100.00
41866;BME280;27539;43.222;27.558;2022-08-25T06:32:01;99894.31;;;25.40;100.00
41866;BME280;27539;43.222;27.558;2022-08-25T06:34:26;99898.94;;;25.44;100.00
41866;BME280;27539;43.222;27.558;2022-08-25T06:36:52;99898.97;;;25.60;100.00
41866;BME280;27539;43.222;27.558;2022-08-25T06:39:18;99898.41;;;25.71;100.00
41866;BME280;27539;43.222;27.558;2022-08-25T06:41:44;99903.69;;;25.84;100.00
41866;BME280;27539;43.222;27.558;2022-08-25T06:44:10;99896.25;;;25.96;100.00
41866;BME280;27539;43.222;27.558;2022-08-25T06:46:35;99910.31;;;26.20;100.00
41866;BME280;27539;43.222;27.558;2022-08-25T06:49:00;99904.13;;;26.50;100.00
41866;BME280;27539;43.222;27.558;2022-08-25T06:51:26;99904.91;;;26.82;100.00
41866;BME280;27539;43.222;27.558;2022-08-25T06:53:52;99908.97;;;27.01;100.00
41866;BME280;27539;43.222;27.558;2022-08-25T06:56:19;99903.13;;;27.13;100.00
41866;BME280;27539;43.222;27.558;2022-08-25T06:58:45;99899.31;;;27.25;100.00
41866;BME280;27539;43.222;27.558;2022-08-25T07:01:12;99899.47;;;27.32;100.00
41866;BME280;27539;43.222;27.558;2022-08-25T07:03:37;99900.81;;;27.38;100.00
41866;BME280;27539;43.222;27.558;2022-08-25T07:06:03;99895.41;;;27.33;100.00
41866;BME280;27539;43.222;27.558;2022-08-25T07:08:29;99898.75;;;27.58;100.00
41866;BME280;27539;43.222;27.558;2022-08-25T07:10:54;99899.78;;;27.46;100.00
41866;BME280;27539;43.222;27.558;2022-08-25T07:13:19;99893.28;;;27.49;100.00
41866;BME280;27539;43.222;27.558;2022-08-25T07:15:45;99896.34;;;27.60;100.00
41866;BME280;27539;43.222;27.558;2022-08-25T07:18:10;99897.13;;;27.80;100.00
41866;BME280;27539;43.222;27.558;2022-08-25T07:20:37;99899.66;;;27.82;100.00
41866;BME280;27539;43.222;27.558;2022-08-25T07:23:03;99889.91;;;27.86;100.00
41866;BME280;27539;43.222;27.558;2022-08-25T07:25:28;99900.06;;;27.84;100.00
41866;BME280;27539;43.222;27.558;2022-08-25T07:27:54;99897.13;;;27.80;100.00
41866;BME280;27539;43.222;27.558;2022-08-25T07:30:19;99889.41;;;28.04;100.00
41866;BME280;27539;43.222;27.558;2022-08-25T07:32:45;99884.41;;;28.23;100.00
41866;BME280;27539;43.222;27.558;2022-08-25T07:35:10;99882.84;;;28.49;100.00
41866;BME280;27539;43.222;27.558;2022-08-25T07:37:48;99880.59;;;28.65;100.00
41866;BME280;27539;43.222;27.558;2022-08-25T07:40:19;99885.53;;;28.69;100.00
41866;BME280;27539;43.222;27.558;2022-08-25T07:42:45;99878.91;;;28.61;100.00
41866;BME280;27539;43.222;27.558;2022-08-25T07:45:12;99884.97;;;28.56;100.00
41866;BME280;27539;43.222;27.558;2022-08-25T07:47:38;99883.09;;;28.67;100.00
41866;BME280;27539;43.222;27.558;2022-08-25T07:50:07;99891.94;;;28.58;100.00
41866;BME280;27539;43.222;27.558;2022-08-25T07:52:33;99880.34;;;28.74;100.00
41866;BME280;27539;43.222;27.558;2022-08-25T07:54:58;99881.94;;;28.72;100.00
41866;BME280;27539;43.222;27.558;2022-08-25T07:57:24;99878.91;;;28.91;100.00
41866;BME280;27539;43.222;27.558;2022-08-25T07:59:50;99874.88;;;29.26;100.00
41866;BME280;27539;43.222;27.558;2022-08-25T08:02:16;99878.03;;;29.51;100.00
41866;BME280;27539;43.222;27.558;2022-08-25T08:04:42;99868.09;;;29.79;100.00
41866;BME280;27539;43.222;27.558;2022-08-25T08:07:09;99862.44;;;29.86;100.00
41866;BME280;27539;43.222;27.558;2022-08-25T08:09:35;99856.25;;;29.80;100.00
41866;BME280;27539;43.222;27.558;2022-08-25T08:12:00;99854.94;;;29.74;100.00
41866;BME280;27539;43.222;27.558;2022-08-25T08:14:26;99852.31;;;29.58;100.00
41866;BME280;27539;43.222;27.558;2022-08-25T08:16:51;99848.41;;;29.74;100.00
41866;BME280;27539;43.222;27.558;2022-08-25T08:19:17;99832.72;;;29.64;100.00
41866;BME280;27539;43.222;27.558;2022-08-25T08:21:43;99853.94;;;29.59;100.00
41866;BME280;27539;43.222;27.558;2022-08-25T08:24:08;99842.94;;;29.61;100.00
41866;BME280;27539;43.222;27.558;2022-08-25T08:26:34;99836.16;;;29.39;100.00
41866;BME280;27539;43.222;27.558;2022-08-25T08:28:59;99837.25;;;29.65;100.00
41866;BME280;27539;43.222;27.558;2022-08-25T08:31:25;99834.53;;;29.79;100.00
41866;BME280;27539;43.222;27.558;2022-08-25T08:33:52;99834.44;;;29.68;100.00
41866;BME280;27539;43.222;27.558;2022-08-25T08:36:18;99830.00;;;29.75;100.00
41866;BME280;27539;43.222;27.558;2022-08-25T08:38:44;99829.13;;;29.70;100.00
41866;BME280;27539;43.222;27.558;2022-08-25T08:44:16;99821.50;;;29.85;100.00
41866;BME280;27539;43.222;27.558;2022-08-25T08:49:51;99811.66;;;29.86;100.00
41866;BME280;27539;43.222;27.558;2022-08-25T08:52:07;99806.84;;;29.98;100.00
41866;BME280;27539;43.222;27.558;2022-08-25T08:54:35;99813.53;;;30.20;100.00
41866;BME280;27539;43.222;27.558;2022-08-25T08:57:03;99807.50;;;30.32;100.00
41866;BME280;27539;43.222;27.558;2022-08-25T08:59:33;99817.13;;;30.57;100.00
41866;BME280;27539;43.222;27.558;2022-08-25T09:02:02;99806.66;;;31.01;100.00
41866;BME280;27539;43.222;27.558;2022-08-25T09:06:58;99803.44;;;31.24;100.00
41866;BME280;27539;43.222;27.558;2022-08-25T09:09:26;99805.09;;;31.18;100.00
41866;BME280;27539;43.222;27.558;2022-08-25T09:20:19;99791.06;;;30.98;100.00
41866;BME280;27539;43.222;27.558;2022-08-25T09:25:14;99779.63;;;31.13;100.00
41866;BME280;27539;43.222;27.558;2022-08-25T09:32:42;99767.41;;;31.55;100.00
41866;BME280;27539;43.222;27.558;2022-08-25T09:35:13;99777.25;;;31.65;98.36
41866;BME280;27539;43.222;27.558;2022-08-25T09:37:41;99773.16;;;31.62;95.23
41866;BME280;27539;43.222;27.558;2022-08-25T09:40:06;99769.88;;;31.78;95.41
41866;BME280;27539;43.222;27.558;2022-08-25T09:42:45;99771.13;;;31.70;89.63
41866;BME280;27539;43.222;27.558;2022-08-25T09:45:12;99771.13;;;31.74;91.00
41866;BME280;27539;43.222;27.558;2022-08-25T09:47:42;99768.25;;;32.06;89.64
41866;BME280;27539;43.222;27.558;2022-08-25T09:50:07;99787.97;;;31.97;88.18
41866;BME280;27539;43.222;27.558;2022-08-25T09:52:39;99765.75;;;32.12;89.77
41866;BME280;27539;43.222;27.558;2022-08-25T10:00:27;99775.63;;;31.78;89.92
41866;BME280;27539;43.222;27.558;2022-08-25T10:05:25;99760.41;;;32.10;83.55
41866;BME280;27539;43.222;27.558;2022-08-25T10:07:52;99762.38;;;32.60;81.39
41866;BME280;27539;43.222;27.558;2022-08-25T10:10:23;99763.63;;;32.59;78.22
41866;BME280;27539;43.222;27.558;2022-08-25T10:12:51;99763.25;;;32.39;82.38
41866;BME280;27539;43.222;27.558;2022-08-25T10:15:27;99755.09;;;32.01;79.84
41866;BME280;27539;43.222;27.558;2022-08-25T10:17:53;99767.34;;;32.52;77.86
41866;BME280;27539;43.222;27.558;2022-08-25T10:20:24;99758.25;;;32.64;72.44
41866;BME280;27539;43.222;27.558;2022-08-25T10:22:49;99771.00;;;32.70;60.70
41866;BME280;27539;43.222;27.558;2022-08-25T10:25:27;99763.03;;;33.03;61.46
41866;BME280;27539;43.222;27.558;2022-08-25T10:33:38;99746.72;;;32.64;59.62
41866;BME280;27539;43.222;27.558;2022-08-25T10:36:13;99752.34;;;32.97;55.93
41866;BME280;27539;43.222;27.558;2022-08-25T10:46:16;99763.31;;;32.14;51.40
41866;BME280;27539;43.222;27.558;2022-08-25T11:06:57;99772.34;;;32.05;52.83
41866;BME280;27539;43.222;27.558;2022-08-25T11:09:29;99778.94;;;32.09;53.44
41866;BME280;27539;43.222;27.558;2022-08-25T11:11:58;99779.75;;;31.99;56.05
41866;BME280;27539;43.222;27.558;2022-08-25T11:14:28;99771.53;;;32.04;56.08
41866;BME280;27539;43.222;27.558;2022-08-25T11:19:40;99774.41;;;32.01;51.26
41866;BME280;27539;43.222;27.558;2022-08-25T11:22:29;99778.94;;;32.09;49.71
41866;BME280;27539;43.222;27.558;2022-08-25T11:25:01;99783.44;;;32.06;50.98
41866;BME280;27539;43.222;27.558;2022-08-25T11:27:36;99769.88;;;32.07;51.54
41866;BME280;27539;43.222;27.558;2022-08-25T11:30:06;99767.81;;;32.11;52.85
41866;BME280;27539;43.222;27.558;2022-08-25T11:32:33;99768.66;;;32.12;51.49
41866;BME280;27539;43.222;27.558;2022-08-25T11:35:00;99770.69;;;32.15;54.53
41866;BME280;27539;43.222;27.558;2022-08-25T11:37:26;99766.53;;;32.41;53.63
41866;BME280;27539;43.222;27.558;2022-08-25T11:52:51;99745.38;;;32.87;47.73
41866;BME280;27539;43.222;27.558;2022-08-25T11:55:31;99746.53;;;33.00;45.40
41866;BME280;27539;43.222;27.558;2022-08-25T12:00:54;99746.53;;;33.11;46.76
41866;BME280;27539;43.222;27.558;2022-08-25T12:16:58;99746.81;;;32.36;53.18
41866;BME280;27539;43.222;27.558;2022-08-25T12:27:21;99757.16;;;31.83;48.11
41866;BME280;27539;43.222;27.558;2022-08-25T12:30:40;99749.75;;;31.85;49.19
41866;BME280;27539;43.222;27.558;2022-08-25T12:38:08;99759.19;;;31.64;49.68
41866;BME280;27539;43.222;27.558;2022-08-25T12:43:10;99755.47;;;31.50;52.18
41866;BME280;27539;43.222;27.558;2022-08-25T12:45:41;99753.84;;;31.56;52.71
41866;BME280;27539;43.222;27.558;2022-08-25T12:51:00;99759.19;;;31.54;53.64
41866;BME280;27539;43.222;27.558;2022-08-25T12:53:32;99761.63;;;31.45;54.63
41866;BME280;27539;43.222;27.558;2022-08-25T12:56:00;99756.75;;;31.45;56.85
41866;BME280;27539;43.222;27.558;2022-08-25T12:58:48;99761.22;;;31.42;58.24
41866;BME280;27539;43.222;27.558;2022-08-25T13:09:03;99757.03;;;31.00;62.34
41866;BME280;27539;43.222;27.558;2022-08-25T13:11:43;99755.34;;;30.89;63.34
41866;BME280;27539;43.222;27.558;2022-08-25T13:16:38;99757.41;;;30.92;65.70
41866;BME280;27539;43.222;27.558;2022-08-25T13:19:04;99752.84;;;30.80;63.75
41866;BME280;27539;43.222;27.558;2022-08-25T13:23:57;99770.81;;;30.63;58.50
41866;BME280;27539;43.222;27.558;2022-08-25T13:28:58;99785.84;;;30.42;41.28
41866;BME280;27539;43.222;27.558;2022-08-25T13:31:25;99774.19;;;30.17;42.11
41866;BME280;27539;43.222;27.558;2022-08-25T13:33:57;99785.72;;;30.24;44.43
41866;BME280;27539;43.222;27.558;2022-08-25T13:36:24;99787.41;;;30.28;44.89
41866;BME280;27539;43.222;27.558;2022-08-25T13:39:13;99775.00;;;30.17;45.61
41866;BME280;27539;43.222;27.558;2022-08-25T13:41:43;99773.06;;;30.25;47.50
41866;BME280;27539;43.222;27.558;2022-08-25T13:44:08;99765.31;;;30.32;48.34
41866;BME280;27539;43.222;27.558;2022-08-25T13:46:34;99766.19;;;30.44;49.22
41866;BME280;27539;43.222;27.558;2022-08-25T13:49:06;99766.09;;;30.26;52.04
41866;BME280;27539;43.222;27.558;2022-08-25T13:51:31;99762.09;;;30.45;54.38
41866;BME280;27539;43.222;27.558;2022-08-25T13:53:58;99771.19;;;30.57;57.31
41866;BME280;27539;43.222;27.558;2022-08-25T13:56:25;99773.69;;;30.66;59.81
41866;BME280;27539;43.222;27.558;2022-08-25T13:58:51;99779.00;;;30.64;51.88
41866;BME280;27539;43.222;27.558;2022-08-25T14:01:21;99785.00;;;30.34;48.03
41866;BME280;27539;43.222;27.558;2022-08-25T14:03:48;99781.66;;;30.25;48.95
41866;BME280;27539;43.222;27.558;2022-08-25T14:08:44;99775.84;;;30.18;49.49
41866;BME280;27539;43.222;27.558;2022-08-25T14:13:35;99781.97;;;30.12;50.24
41866;BME280;27539;43.222;27.558;2022-08-25T14:18:44;99790.97;;;30.14;50.63
41866;BME280;27539;43.222;27.558;2022-08-25T14:21:10;99779.88;;;30.09;49.83
41866;BME280;27539;43.222;27.558;2022-08-25T14:23:36;99780.19;;;29.93;52.18
41866;BME280;27539;43.222;27.558;2022-08-25T14:26:02;99786.59;;;29.76;53.18
41866;BME280;27539;43.222;27.558;2022-08-25T14:28:28;99787.38;;;29.73;54.32
41866;BME280;27539;43.222;27.558;2022-08-25T14:33:32;99780.41;;;29.70;55.57
41866;BME280;27539;43.222;27.558;2022-08-25T14:35:59;99787.66;;;29.61;58.34
41866;BME280;27539;43.222;27.558;2022-08-25T14:38:26;99777.72;;;29.47;58.33
41866;BME280;27539;43.222;27.558;2022-08-25T14:40:52;99787.16;;;29.51;60.34
41866;BME280;27539;43.222;27.558;2022-08-25T14:43:17;99791.91;;;29.37;61.15
41866;BME280;27539;43.222;27.558;2022-08-25T14:45:44;99800.09;;;29.35;61.38
41866;BME280;27539;43.222;27.558;2022-08-25T14:48:12;99810.88;;;29.11;59.42
41866;BME280;27539;43.222;27.558;2022-08-25T14:50:38;99814.47;;;29.04;64.07
41866;BME280;27539;43.222;27.558;2022-08-25T14:53:04;99809.03;;;28.96;65.27
41866;BME280;27539;43.222;27.558;2022-08-25T14:55:30;99808.16;;;28.92;67.79
41866;BME280;27539;43.222;27.558;2022-08-25T14:57:55;99801.59;;;28.88;69.17
41866;BME280;27539;43.222;27.558;2022-08-25T15:00:21;99808.59;;;28.94;70.35
41866;BME280;27539;43.222;27.558;2022-08-25T15:02:47;99799.97;;;28.90;68.59
41866;BME280;27539;43.222;27.558;2022-08-25T15:05:14;99796.56;;;28.81;71.01